createdAt,value
2022-10-14T00:01:40.474Z,11.81
2022-10-14T00:04:07.009Z,11.85
2022-10-14T00:06:34.205Z,11.83
2022-10-14T00:09:03.513Z,11.84
2022-10-14T00:11:31.835Z,11.89
2022-10-14T00:14:03.064Z,11.92
2022-10-14T00:16:33.206Z,11.92
2022-10-14T00:19:00.298Z,11.90
2022-10-14T00:21:27.700Z,11.91
2022-10-14T00:23:54.695Z,11.89
2022-10-14T00:26:24.159Z,11.93
2022-10-14T00:28:51.331Z,11.89
2022-10-14T00:31:18.061Z,11.98
2022-10-14T00:33:45.264Z,11.99
2022-10-14T00:36:14.080Z,12.03
2022-10-14T00:38:40.760Z,11.99
2022-10-14T00:41:08.552Z,11.98
2022-10-14T00:43:51.661Z,11.94
2022-10-14T00:46:18.430Z,11.92
2022-10-14T00:48:45.370Z,11.92
2022-10-14T00:51:11.948Z,11.98
2022-10-14T00:53:39.784Z,12.03
2022-10-14T00:56:07.711Z,12.05
2022-10-14T00:58:34.276Z,12.10
2022-10-14T01:01:00.783Z,12.10
2022-10-14T01:03:27.403Z,12.09
2022-10-14T01:06:15.053Z,12.09
2022-10-14T01:08:49.604Z,12.07
2022-10-14T01:11:23.407Z,12.06
2022-10-14T01:14:14.694Z,12.05
2022-10-14T01:19:59.615Z,12.06
2022-10-14T01:22:31.981Z,12.05
2022-10-14T01:25:17.124Z,12.05
2022-10-14T01:27:47.004Z,12.05
2022-10-14T01:30:17.781Z,12.06
2022-10-14T01:32:44.265Z,12.03
2022-10-14T01:35:26.299Z,12.03
2022-10-14T01:37:57.053Z,11.99
2022-10-14T01:40:39.611Z,12.00
2022-10-14T01:43:06.302Z,12.00
2022-10-14T01:45:34.896Z,12.03
2022-10-14T01:48:02.048Z,12.09
2022-10-14T01:50:30.144Z,12.15
2022-10-14T01:53:03.558Z,12.12
2022-10-14T01:55:35.089Z,12.13
2022-10-14T01:58:01.851Z,12.14
2022-10-14T02:00:28.370Z,12.11
2022-10-14T02:02:54.853Z,12.11
2022-10-14T02:05:27.419Z,12.13
2022-10-14T02:07:59.892Z,12.19
2022-10-14T02:11:02.581Z,12.17
2022-10-14T02:13:49.085Z,12.27
2022-10-14T02:16:18.546Z,12.38
2022-10-14T02:18:58.604Z,12.47
2022-10-14T02:24:40.846Z,12.54
2022-10-14T02:27:11.832Z,12.51
2022-10-14T02:29:39.089Z,12.45
2022-10-14T02:32:06.761Z,12.48
2022-10-14T02:34:34.084Z,12.48
2022-10-14T02:37:01.530Z,12.54
2022-10-14T02:39:31.279Z,12.51
2022-10-14T02:41:57.894Z,12.54
2022-10-14T02:44:24.470Z,12.53
2022-10-14T02:46:50.980Z,12.59
2022-10-14T02:49:17.774Z,12.61
2022-10-14T02:51:44.237Z,12.63
2022-10-14T02:54:10.805Z,12.60
2022-10-14T02:56:37.590Z,12.60
2022-10-14T02:59:04.102Z,12.64
2022-10-14T03:01:33.779Z,12.62
2022-10-14T03:04:03.777Z,12.57
2022-10-14T03:06:30.291Z,12.53
2022-10-14T03:08:56.884Z,12.58
2022-10-14T03:11:23.392Z,12.61
2022-10-14T03:13:49.864Z,12.58
2022-10-14T03:16:16.359Z,12.46
2022-10-14T03:18:42.863Z,12.44
2022-10-14T03:21:09.392Z,12.42
2022-10-14T03:23:35.860Z,12.42
2022-10-14T03:26:02.357Z,12.40
2022-10-14T03:28:28.960Z,12.43
2022-10-14T03:30:55.471Z,12.46
2022-10-14T03:33:25.539Z,12.41
2022-10-14T03:35:52.972Z,12.41
2022-10-14T03:38:19.624Z,12.39
2022-10-14T03:40:46.231Z,12.38
2022-10-14T03:43:12.804Z,12.41
2022-10-14T03:45:39.270Z,12.36
2022-10-14T03:48:05.947Z,12.35
2022-10-14T03:50:32.588Z,12.34
2022-10-14T03:52:59.072Z,12.36
2022-10-14T03:55:25.664Z,12.36
2022-10-14T03:57:52.124Z,12.34
2022-10-14T04:00:18.744Z,12.32
2022-10-14T04:02:45.206Z,12.31
2022-10-14T04:05:11.717Z,12.29
2022-10-14T04:07:38.266Z,12.30
2022-10-14T04:10:05.557Z,12.28
2022-10-14T04:12:32.544Z,12.33
2022-10-14T04:14:59.008Z,12.37
2022-10-14T04:17:26.081Z,12.33
2022-10-14T04:19:53.056Z,12.39
2022-10-14T04:22:19.970Z,12.35
2022-10-14T04:24:46.767Z,12.35
2022-10-14T04:27:13.409Z,12.35
2022-10-14T04:29:40.184Z,12.34
2022-10-14T04:32:06.792Z,12.36
2022-10-14T04:34:33.320Z,12.38
2022-10-14T04:36:59.784Z,12.38
2022-10-14T04:39:26.496Z,12.40
2022-10-14T04:41:52.962Z,12.39
2022-10-14T04:44:19.693Z,12.43
2022-10-14T04:46:46.190Z,12.45
2022-10-14T04:49:12.841Z,12.45
2022-10-14T04:51:39.402Z,12.54
2022-10-14T04:54:05.912Z,12.63
2022-10-14T04:56:32.441Z,12.68
2022-10-14T04:58:58.958Z,12.62
2022-10-14T05:01:27.267Z,12.62
2022-10-14T05:03:56.880Z,12.63
2022-10-14T05:06:23.463Z,12.61
2022-10-14T05:08:49.958Z,12.60
2022-10-14T05:11:16.469Z,12.64
2022-10-14T05:13:43.008Z,12.66
2022-10-14T05:16:09.572Z,12.62
2022-10-14T05:18:36.161Z,12.63
2022-10-14T05:21:02.664Z,12.66
2022-10-14T05:23:29.248Z,12.59
2022-10-14T05:25:56.120Z,12.59
2022-10-14T05:28:22.708Z,12.67
2022-10-14T05:30:49.868Z,12.70
2022-10-14T05:33:16.448Z,12.74
2022-10-14T05:35:59.754Z,12.71
2022-10-14T05:38:26.771Z,12.74
2022-10-14T05:40:57.364Z,12.71
2022-10-14T05:43:29.303Z,12.73
2022-10-14T05:45:57.776Z,12.75
2022-10-14T05:48:24.306Z,12.76
2022-10-14T05:50:50.785Z,12.74
2022-10-14T05:53:17.323Z,12.77
2022-10-14T05:55:43.848Z,12.76
2022-10-14T05:58:10.358Z,12.76
2022-10-14T06:00:36.912Z,12.80
2022-10-14T06:03:03.531Z,12.84
2022-10-14T06:05:30.128Z,12.83
2022-10-14T06:07:56.839Z,12.83
2022-10-14T06:10:23.472Z,12.84
2022-10-14T06:12:49.993Z,12.90
2022-10-14T06:15:16.562Z,12.91
2022-10-14T06:17:43.221Z,12.87
2022-10-14T06:20:10.236Z,12.95
2022-10-14T06:22:36.786Z,12.94
2022-10-14T06:25:04.621Z,12.92
2022-10-14T06:27:31.344Z,12.97
2022-10-14T06:29:57.833Z,12.99
2022-10-14T06:32:24.729Z,12.98
2022-10-14T06:34:51.523Z,13.01
2022-10-14T06:37:18.056Z,12.97
2022-10-14T06:39:45.191Z,13.00
2022-10-14T06:42:13.147Z,12.99
2022-10-14T06:44:39.971Z,13.00
2022-10-14T06:47:07.888Z,13.04
2022-10-14T06:49:34.531Z,13.01
2022-10-14T06:52:01.027Z,12.99
2022-10-14T06:54:27.501Z,13.06
2022-10-14T06:56:53.967Z,13.05
2022-10-14T06:59:20.694Z,13.06
2022-10-14T07:01:47.306Z,13.12
2022-10-14T07:04:14.007Z,13.12
2022-10-14T07:06:40.517Z,13.14
2022-10-14T07:09:06.983Z,13.15
2022-10-14T07:11:33.507Z,13.21
2022-10-14T07:14:00.451Z,13.18
2022-10-14T07:16:28.081Z,13.26
2022-10-14T07:18:54.599Z,13.18
2022-10-14T07:21:21.263Z,13.25
2022-10-14T07:23:47.989Z,13.23
2022-10-14T07:26:14.585Z,13.21
2022-10-14T07:28:41.115Z,13.29
2022-10-14T07:31:09.423Z,13.32
2022-10-14T07:36:13.049Z,13.26
2022-10-14T07:38:41.048Z,13.33
2022-10-14T07:41:16.851Z,13.34
2022-10-14T07:43:45.368Z,13.31
2022-10-14T07:46:12.682Z,13.32
2022-10-14T07:48:52.630Z,13.38
2022-10-14T07:51:23.285Z,13.33
2022-10-14T07:53:50.200Z,13.30
2022-10-14T07:56:16.749Z,13.34
2022-10-14T07:58:44.653Z,13.32
2022-10-14T08:01:11.484Z,13.32
2022-10-14T08:03:38.137Z,13.28
2022-10-14T08:06:05.712Z,13.29
2022-10-14T08:08:32.716Z,13.27
2022-10-14T08:11:03.988Z,13.25
2022-10-14T08:13:31.157Z,13.29
2022-10-14T08:15:57.751Z,13.29
2022-10-14T08:18:25.019Z,13.33
2022-10-14T08:20:51.729Z,13.34
2022-10-14T08:23:19.898Z,13.35
2022-10-14T08:25:48.405Z,13.34
2022-10-14T08:28:15.177Z,13.39
2022-10-14T08:30:41.877Z,13.41
2022-10-14T08:33:08.557Z,13.40
2022-10-14T08:35:35.120Z,13.35
2022-10-14T08:38:02.628Z,13.40
2022-10-14T08:40:30.733Z,13.39
2022-10-14T08:43:02.334Z,13.43
2022-10-14T08:45:36.219Z,13.39
2022-10-14T08:48:05.730Z,13.42
2022-10-14T08:53:42.345Z,13.43
2022-10-14T08:56:11.906Z,13.34
2022-10-14T08:58:50.311Z,13.38
2022-10-14T09:01:32.811Z,13.38
2022-10-14T09:04:05.646Z,13.38
2022-10-14T09:06:34.578Z,13.39
2022-10-14T09:09:07.826Z,13.36
2022-10-14T09:11:39.251Z,13.43
2022-10-14T09:14:07.744Z,13.40
2022-10-14T09:16:37.371Z,13.44
2022-10-14T09:19:15.599Z,13.42
2022-10-14T09:21:52.710Z,13.40
2022-10-14T09:24:32.632Z,13.46
2022-10-14T09:27:11.138Z,13.51
2022-10-14T09:30:00.614Z,13.47
2022-10-14T09:32:41.477Z,13.49
2022-10-14T09:35:25.146Z,13.47
2022-10-14T09:37:52.316Z,13.44
2022-10-14T09:40:28.922Z,13.45
2022-10-14T09:43:03.608Z,13.44
2022-10-14T09:45:47.466Z,13.43
2022-10-14T09:51:29.726Z,13.52
2022-10-14T09:53:57.926Z,13.47
2022-10-14T09:56:36.249Z,13.51
2022-10-14T09:59:16.002Z,13.53
2022-10-14T10:01:50.650Z,13.55
2022-10-14T10:04:32.447Z,13.53
2022-10-14T10:07:01.170Z,13.52
2022-10-14T10:09:27.833Z,13.55
2022-10-14T10:11:55.182Z,13.62
2022-10-14T10:14:25.643Z,13.65
2022-10-14T10:17:15.474Z,13.64
2022-10-14T10:19:44.291Z,13.64
2022-10-14T10:25:01.290Z,13.66
2022-10-14T10:27:31.628Z,13.66
2022-10-14T10:30:15.422Z,13.71
2022-10-14T10:32:48.292Z,13.74
2022-10-14T10:35:14.875Z,13.73
2022-10-14T10:37:41.770Z,13.75
2022-10-14T10:40:12.450Z,13.77
2022-10-14T10:43:18.611Z,13.76
2022-10-14T10:45:57.286Z,13.86
2022-10-14T10:48:35.955Z,13.87
2022-10-14T10:51:07.787Z,13.90
2022-10-14T10:53:40.435Z,13.87
2022-10-14T10:56:13.501Z,13.88
2022-10-14T10:58:59.648Z,13.88
2022-10-14T11:01:39.220Z,13.85
2022-10-14T11:04:17.044Z,13.84
2022-10-14T11:07:07.789Z,13.85
2022-10-14T11:10:00.941Z,13.89
2022-10-14T11:12:39.915Z,13.84
2022-10-14T11:15:40.533Z,13.82
2022-10-14T11:18:14.878Z,13.86
2022-10-14T11:24:13.238Z,14.07
2022-10-14T11:26:46.791Z,14.07
2022-10-14T11:29:13.273Z,14.09
2022-10-14T11:35:02.592Z,14.19
2022-10-14T11:37:44.496Z,14.28
2022-10-14T11:40:22.995Z,14.34
2022-10-14T11:43:08.552Z,14.37
2022-10-14T11:45:46.792Z,14.52
2022-10-14T11:48:36.356Z,14.65
2022-10-14T11:54:30.910Z,14.84
2022-10-14T11:57:15.651Z,15.09
2022-10-14T11:59:53.111Z,15.20
2022-10-14T12:02:35.848Z,15.42
2022-10-14T12:05:04.599Z,15.57
2022-10-14T12:07:37.688Z,15.44
2022-10-14T12:10:12.413Z,15.69
2022-10-14T12:12:40.152Z,15.69
2022-10-14T12:15:15.371Z,15.75
2022-10-14T12:17:56.894Z,15.69
2022-10-14T12:20:38.444Z,15.64
2022-10-14T12:23:07.203Z,15.56
2022-10-14T12:25:44.024Z,15.39
2022-10-14T12:28:12.466Z,15.48
2022-10-14T12:30:41.173Z,15.56
2022-10-14T12:33:10.125Z,15.64
2022-10-14T12:35:45.816Z,15.85
2022-10-14T12:38:12.645Z,16.14
2022-10-14T12:40:39.406Z,16.19
2022-10-14T12:43:26.654Z,16.34
2022-10-14T12:46:12.901Z,16.72
2022-10-14T12:48:46.446Z,16.72
2022-10-14T12:51:16.070Z,16.70
2022-10-14T12:54:04.963Z,16.84
2022-10-14T12:56:38.612Z,16.69
2022-10-14T12:59:08.219Z,16.74
2022-10-14T13:01:36.613Z,16.60
2022-10-14T13:04:17.460Z,16.66
2022-10-14T13:07:39.612Z,16.73
2022-10-14T13:10:44.977Z,16.68
2022-10-14T13:13:40.600Z,16.91
2022-10-14T13:16:07.106Z,16.82
2022-10-14T13:18:36.555Z,16.97
2022-10-14T13:21:05.403Z,17.12
2022-10-14T13:23:43.164Z,17.28
2022-10-14T13:26:32.882Z,17.17
2022-10-14T13:29:17.719Z,17.26
2022-10-14T13:31:47.210Z,17.10
2022-10-14T13:34:25.212Z,17.18
2022-10-14T13:37:07.284Z,17.34
2022-10-14T13:39:34.821Z,17.41
2022-10-14T13:42:01.946Z,17.55
2022-10-14T13:44:28.748Z,17.83
2022-10-14T13:46:55.266Z,17.72
2022-10-14T13:49:30.487Z,17.50
2022-10-14T13:52:05.941Z,17.12
2022-10-14T13:54:32.574Z,17.04
2022-10-14T13:57:28.646Z,16.83
2022-10-14T14:00:22.489Z,16.98
2022-10-14T14:02:34.658Z,17.37
2022-10-14T14:05:01.617Z,17.86
2022-10-14T14:08:04.180Z,17.83
2022-10-14T14:10:24.129Z,17.35
2022-10-14T14:12:51.117Z,17.21
2022-10-14T14:15:22.563Z,16.97
2022-10-14T14:17:49.068Z,16.71
2022-10-14T14:20:20.371Z,16.43
2022-10-14T14:22:46.848Z,16.26
2022-10-14T14:25:36.135Z,16.16
2022-10-14T14:28:05.997Z,16.27
2022-10-14T14:30:37.161Z,16.21
2022-10-14T14:33:18.654Z,16.18
2022-10-14T14:35:57.087Z,16.29
2022-10-14T14:38:31.461Z,16.04
2022-10-14T14:41:02.074Z,16.09
2022-10-14T14:43:34.592Z,16.20
2022-10-14T14:46:02.582Z,16.17
2022-10-14T14:48:30.116Z,16.07
2022-10-14T14:50:57.166Z,15.86
2022-10-14T14:53:29.490Z,15.82
2022-10-14T14:55:56.067Z,15.68
2022-10-14T14:58:30.353Z,15.76
2022-10-14T15:00:57.146Z,15.64
2022-10-14T15:03:26.456Z,15.61
2022-10-14T15:06:04.885Z,15.51
2022-10-14T15:08:33.693Z,15.44
2022-10-14T15:11:01.223Z,15.42
2022-10-14T15:13:38.557Z,15.46
2022-10-14T15:16:06.001Z,15.33
2022-10-14T15:18:32.775Z,15.38
2022-10-14T15:21:11.461Z,15.24
2022-10-14T15:23:39.053Z,15.19
2022-10-14T15:26:31.340Z,15.10
2022-10-14T15:29:17.915Z,14.94
2022-10-14T15:31:46.786Z,14.81
2022-10-14T15:34:31.383Z,14.84
2022-10-14T15:36:58.043Z,14.86
2022-10-14T15:39:24.563Z,14.73
2022-10-14T15:41:51.121Z,14.69
2022-10-14T15:44:17.590Z,14.73
2022-10-14T15:47:04.007Z,14.68
2022-10-14T15:49:33.513Z,14.70
2022-10-14T15:51:59.991Z,14.65
2022-10-14T15:54:27.396Z,14.67
2022-10-14T15:59:23.843Z,14.63
2022-10-14T16:01:50.907Z,14.71
2022-10-14T16:04:24.384Z,14.72
2022-10-14T16:06:54.695Z,14.70
2022-10-14T16:09:22.524Z,14.67
2022-10-14T16:11:57.458Z,14.76
2022-10-14T16:14:27.694Z,14.73
2022-10-14T16:16:54.655Z,14.58
2022-10-14T16:19:21.234Z,14.45
2022-10-14T16:21:49.715Z,14.38
2022-10-14T16:24:21.189Z,14.43
2022-10-14T16:26:51.490Z,14.32
2022-10-14T16:29:19.166Z,14.20
2022-10-14T16:31:49.247Z,14.19
2022-10-14T16:34:20.761Z,14.17
2022-10-14T16:36:48.861Z,14.10
2022-10-14T16:39:15.949Z,14.08
2022-10-14T16:41:42.648Z,14.05
2022-10-14T16:44:24.443Z,14.01
2022-10-14T16:47:11.281Z,13.95
2022-10-14T16:49:38.298Z,13.94
2022-10-14T16:52:05.357Z,13.94
2022-10-14T16:54:31.891Z,13.93
2022-10-14T16:56:58.924Z,13.95
2022-10-14T16:59:25.815Z,13.90
2022-10-14T17:01:52.783Z,13.82
2022-10-14T17:04:22.583Z,13.84
2022-10-14T17:06:49.608Z,13.75
2022-10-14T17:09:17.659Z,13.76
2022-10-14T17:11:44.425Z,13.75
2022-10-14T17:14:13.988Z,13.72
2022-10-14T17:16:41.128Z,13.66
2022-10-14T17:19:07.699Z,13.66
2022-10-14T17:21:34.367Z,13.59
2022-10-14T17:24:02.017Z,13.61
2022-10-14T17:26:30.517Z,13.60
2022-10-14T17:28:57.528Z,13.60
2022-10-14T17:31:24.954Z,13.62
2022-10-14T17:33:51.949Z,13.58
2022-10-14T17:36:24.486Z,13.63
2022-10-14T17:38:52.013Z,13.61
2022-10-14T17:41:18.610Z,13.58
2022-10-14T17:43:49.339Z,13.57
2022-10-14T17:46:18.280Z,13.55
2022-10-14T17:48:49.579Z,13.52
2022-10-14T17:51:16.089Z,13.51
2022-10-14T17:53:42.586Z,13.49
2022-10-14T17:56:12.042Z,13.50
2022-10-14T17:58:39.346Z,13.52
2022-10-14T18:01:09.808Z,13.47
2022-10-14T18:03:37.481Z,13.51
2022-10-14T18:06:18.655Z,13.46
2022-10-14T18:08:56.133Z,13.42
2022-10-14T18:11:24.201Z,13.45
2022-10-14T18:13:56.603Z,13.46
2022-10-14T18:16:25.080Z,13.41
2022-10-14T18:18:53.244Z,13.38
2022-10-14T18:21:20.383Z,13.44
2022-10-14T18:23:47.458Z,13.45
2022-10-14T18:26:16.445Z,13.38
2022-10-14T18:28:48.564Z,13.29
2022-10-14T18:31:19.447Z,13.28
2022-10-14T18:33:47.409Z,13.24
2022-10-14T18:36:16.993Z,13.19
2022-10-14T18:38:48.626Z,13.21
2022-10-14T18:41:15.308Z,13.21
2022-10-14T18:43:42.536Z,13.14
2022-10-14T18:46:20.431Z,13.15
2022-10-14T18:48:49.022Z,13.15
2022-10-14T18:51:17.985Z,13.11
2022-10-14T18:53:46.238Z,13.10
2022-10-14T18:56:17.823Z,13.04
2022-10-14T18:58:46.397Z,13.07
2022-10-14T19:01:14.522Z,13.02
2022-10-14T19:03:41.880Z,12.92
2022-10-14T19:06:10.064Z,12.88
2022-10-14T19:08:38.015Z,12.80
2022-10-14T19:11:09.683Z,12.86
2022-10-14T19:13:37.576Z,12.87
2022-10-14T19:16:08.388Z,12.87
2022-10-14T19:18:35.599Z,12.87
2022-10-14T19:21:10.159Z,12.81
2022-10-14T19:23:41.078Z,12.84
2022-10-14T19:26:09.328Z,12.87
2022-10-14T19:28:36.413Z,12.87
2022-10-14T19:31:12.023Z,12.91
2022-10-14T19:33:40.378Z,12.88
2022-10-14T19:36:07.483Z,12.92
2022-10-14T19:38:34.917Z,12.95
2022-10-14T19:41:03.231Z,12.93
2022-10-14T19:43:30.320Z,12.99
2022-10-14T19:45:58.908Z,12.98
2022-10-14T19:48:26.239Z,13.03
2022-10-14T19:50:52.766Z,13.03
2022-10-14T19:53:19.375Z,13.03
2022-10-14T19:55:45.889Z,13.06
2022-10-14T19:58:12.429Z,13.04
2022-10-14T20:00:38.936Z,13.08
2022-10-14T20:03:05.402Z,13.07
2022-10-14T20:05:32.288Z,13.05
2022-10-14T20:07:58.847Z,13.01
2022-10-14T20:10:25.652Z,13.04
2022-10-14T20:12:52.144Z,13.10
2022-10-14T20:15:18.786Z,13.13
2022-10-14T20:17:45.615Z,13.12
2022-10-14T20:20:12.914Z,13.17
2022-10-14T20:22:39.400Z,13.15
2022-10-14T20:25:06.127Z,13.16
2022-10-14T20:27:32.627Z,13.22
2022-10-14T20:29:59.139Z,13.24
2022-10-14T20:32:25.802Z,13.23
2022-10-14T20:34:52.373Z,13.26
2022-10-14T20:37:19.180Z,13.29
2022-10-14T20:39:47.511Z,13.30
2022-10-14T20:42:14.040Z,13.35
2022-10-14T20:44:40.532Z,13.38
2022-10-14T20:47:08.487Z,13.43
2022-10-14T20:49:34.992Z,13.43
2022-10-14T20:52:01.515Z,13.41
2022-10-14T20:54:28.043Z,13.36
2022-10-14T20:56:54.512Z,13.37
2022-10-14T20:59:21.077Z,13.36
2022-10-14T21:01:47.660Z,13.33
2022-10-14T21:04:14.207Z,13.36
2022-10-14T21:06:41.166Z,13.40
2022-10-14T21:09:07.982Z,13.38
2022-10-14T21:11:34.537Z,13.37
2022-10-14T21:14:01.099Z,13.35
2022-10-14T21:16:32.939Z,13.37
2022-10-14T21:19:03.037Z,13.41
2022-10-14T21:21:34.342Z,13.34
2022-10-14T21:24:00.810Z,13.41
2022-10-14T21:26:28.530Z,13.44
2022-10-14T21:28:55.178Z,13.43
2022-10-14T21:31:21.922Z,13.37
2022-10-14T21:33:54.202Z,13.37
2022-10-14T21:36:20.694Z,13.37
2022-10-14T21:38:47.276Z,13.41
2022-10-14T21:41:13.998Z,13.38
2022-10-14T21:43:40.713Z,13.41
2022-10-14T21:46:13.042Z,13.41
2022-10-14T21:48:40.530Z,13.37
2022-10-14T21:51:11.963Z,13.42
2022-10-14T21:53:39.611Z,13.51
2022-10-14T21:56:06.609Z,13.43
2022-10-14T21:58:33.691Z,13.47
2022-10-14T22:01:05.855Z,13.44
2022-10-14T22:03:33.056Z,13.44
2022-10-14T22:06:00.939Z,13.41
2022-10-14T22:08:47.411Z,13.42
2022-10-14T22:11:26.665Z,13.38
2022-10-14T22:13:54.237Z,13.33
2022-10-14T22:16:20.813Z,13.31
2022-10-14T22:18:50.527Z,13.32
2022-10-14T22:21:18.882Z,13.32
2022-10-14T22:23:46.180Z,13.34
2022-10-14T22:26:14.033Z,13.28
2022-10-14T22:28:41.056Z,13.24
2022-10-14T22:31:13.297Z,13.21
2022-10-14T22:33:40.171Z,13.23
2022-10-14T22:36:19.347Z,13.24
2022-10-14T22:38:50.048Z,13.18
2022-10-14T22:41:17.335Z,13.17
2022-10-14T22:43:51.770Z,13.12
2022-10-14T22:46:22.284Z,13.11
2022-10-14T22:48:49.556Z,13.12
2022-10-14T22:51:18.610Z,13.10
2022-10-14T22:53:46.360Z,13.10
2022-10-14T22:56:16.024Z,13.05
2022-10-14T22:58:42.753Z,12.99
2022-10-14T23:01:11.427Z,13.02
2022-10-14T23:03:38.116Z,13.02
2022-10-14T23:06:07.027Z,13.01
2022-10-14T23:08:34.706Z,13.06
2022-10-14T23:11:02.247Z,13.07
2022-10-14T23:13:29.028Z,13.06
2022-10-14T23:16:00.260Z,13.03
2022-10-14T23:18:28.043Z,13.04
2022-10-14T23:20:54.821Z,13.04
2022-10-14T23:23:21.681Z,13.02
2022-10-14T23:25:48.259Z,13.00
2022-10-14T23:28:15.161Z,12.99
2022-10-14T23:30:41.728Z,12.94
2022-10-14T23:33:10.800Z,12.95
2022-10-14T23:35:38.737Z,13.02
2022-10-14T23:38:05.310Z,13.01
2022-10-14T23:40:31.812Z,12.98
2022-10-14T23:42:58.377Z,13.02
2022-10-14T23:45:24.897Z,13.06
2022-10-14T23:47:51.358Z,13.05
2022-10-14T23:50:17.942Z,13.14
2022-10-14T23:52:45.887Z,13.13
2022-10-14T23:55:13.345Z,13.16
2022-10-14T23:57:40.386Z,13.22
